sim
Sign-in with your pilot id or email,
or register
Callsign
Passwort

Schedule Details

Flight Number: OEC1002
Departure: Prague Vaclav Havel Airport (LKPR) at 1730
Arrival: Hamburg Airport (EDDH) at 1840
Route: VENOX Y621 ESLOR M748 RARUP

Weather Information
Getting current METAR information for LKPR 241430Z 22016KT 9999 -SN FEW018 SCT024 00/M02 Q0996 R24/29//95 R30/29//95 NOSIG
Getting current METAR information for EDDH 241450Z 23004KT 200V260 9999 -RA FEW011 BKN014 03/01 Q0997 TEMPO 4500 -RASN

Schedule Frequency

Route Map